Time;durP1;ratioP1;P1;durP2;ratioP2;P2;SDS_P1;SDS_P2;PMS_P1;PMS_P2;Temp;Humidity;BMP_temperature;BMP_pressure;BME280_temperature;BME280_humidity;BME280_pressure;Samples;Min_cycle;Max_cycle;Signal;HPM_P1;HPM_P2
2021/01/08 00:01:39;;;;;;;13.20;8.77;;;3.20;99.90;;;;;;5028755;28;20440;-82
2021/01/08 00:04:05;;;;;;;12.90;9.03;;;3.10;99.90;;;;;;5030672;28;20551;-85
2021/01/08 00:06:32;;;;;;;11.23;8.57;;;3.10;99.90;;;;;;5026578;28;20476;-86
2021/01/08 00:08:59;;;;;;;11.53;9.43;;;3.00;99.90;;;;;;5028013;28;21317;-84
2021/01/08 00:11:26;;;;;;;11.40;8.73;;;3.00;99.90;;;;;;5028604;28;21300;-85
2021/01/08 00:13:52;;;;;;;10.60;8.30;;;3.10;99.90;;;;;;5029876;28;20259;-86
2021/01/08 00:16:18;;;;;;;12.10;8.50;;;3.10;99.90;;;;;;5030121;28;20548;-86
2021/01/08 00:18:45;;;;;;;10.10;8.50;;;3.10;99.90;;;;;;5032210;28;20445;-85
2021/01/08 00:21:12;;;;;;;13.70;9.13;;;3.10;99.90;;;;;;5031192;28;20481;-85
2021/01/08 00:23:39;;;;;;;11.47;8.00;;;3.10;99.90;;;;;;5031001;28;20218;-87
2021/01/08 00:26:06;;;;;;;10.90;9.10;;;3.20;99.90;;;;;;5030180;28;20448;-86
2021/01/08 00:28:32;;;;;;;13.13;9.40;;;3.10;99.90;;;;;;5031591;28;20470;-86
2021/01/08 00:30:58;;;;;;;9.95;7.65;;;3.10;99.90;;;;;;5033013;28;20453;-87
2021/01/08 00:33:25;;;;;;;9.73;8.60;;;3.20;99.90;;;;;;5034753;28;20213;-86
2021/01/08 00:35:51;;;;;;;13.23;9.17;;;3.20;99.90;;;;;;5033323;28;20453;-86
2021/01/08 00:38:17;;;;;;;11.70;8.37;;;3.20;99.90;;;;;;5033065;28;20486;-86
2021/01/08 00:40:44;;;;;;;9.60;7.83;;;3.20;99.90;;;;;;5033827;28;20443;-86
2021/01/08 00:43:10;;;;;;;12.10;9.10;;;3.20;99.90;;;;;;5032244;28;20469;-86
2021/01/08 00:45:37;;;;;;;11.18;8.48;;;3.20;99.90;;;;;;5032330;28;20499;-86
2021/01/08 00:48:03;;;;;;;10.20;8.05;;;3.20;99.90;;;;;;5033017;28;20222;-86
2021/01/08 00:50:29;;;;;;;9.77;7.97;;;3.20;99.90;;;;;;5032977;28;20206;-85
2021/01/08 00:52:55;;;;;;;11.30;9.10;;;3.30;99.90;;;;;;5033658;28;20458;-86
2021/01/08 00:55:22;;;;;;;11.87;8.77;;;3.30;99.90;;;;;;5032652;28;20444;-86
2021/01/08 00:57:48;;;;;;;11.03;8.80;;;3.30;99.90;;;;;;5034236;28;20445;-85
2021/01/08 01:00:16;;;;;;;13.30;9.17;;;3.20;99.90;;;;;;5034290;28;20433;-86
2021/01/08 01:02:42;;;;;;;10.87;9.63;;;3.20;99.90;;;;;;5033426;28;20468;-86
2021/01/08 01:05:09;;;;;;;11.13;9.30;;;3.20;99.90;;;;;;5033129;28;20452;-86
2021/01/08 01:07:35;;;;;;;11.50;8.93;;;3.20;99.90;;;;;;5032753;28;20449;-86
2021/01/08 01:10:03;;;;;;;12.60;9.70;;;3.20;99.90;;;;;;5030533;28;20503;-86
2021/01/08 01:12:29;;;;;;;11.07;8.67;;;3.20;99.90;;;;;;5032219;28;20476;-87
2021/01/08 01:14:55;;;;;;;12.10;8.93;;;3.20;99.90;;;;;;5032366;28;20457;-86
2021/01/08 01:17:22;;;;;;;10.20;8.90;;;3.20;99.90;;;;;;5031615;28;20444;-86
2021/01/08 01:19:48;;;;;;;11.13;8.10;;;3.20;99.90;;;;;;5031962;28;21034;-86
2021/01/08 01:22:15;;;;;;;8.93;7.10;;;3.20;99.90;;;;;;5030117;28;20434;-86
2021/01/08 01:24:41;;;;;;;10.63;8.73;;;3.20;99.90;;;;;;5029777;28;20950;-86
2021/01/08 01:27:07;;;;;;;9.10;7.70;;;3.20;99.90;;;;;;5033004;28;20459;-86
2021/01/08 01:29:33;;;;;;;8.70;7.50;;;3.10;99.90;;;;;;5032923;28;20540;-86
2021/01/08 01:31:59;;;;;;;11.47;9.00;;;3.10;99.90;;;;;;5033121;28;20437;-85
2021/01/08 01:34:26;;;;;;;10.97;8.37;;;3.00;99.90;;;;;;5028854;28;20464;-85
2021/01/08 01:36:52;;;;;;;8.30;6.90;;;3.00;99.90;;;;;;5032516;28;20854;-86
2021/01/08 01:39:19;;;;;;;10.93;8.50;;;3.00;99.90;;;;;;5032710;28;20448;-86
2021/01/08 01:41:45;;;;;;;13.03;9.10;;;3.00;99.90;;;;;;5033507;28;20986;-86
2021/01/08 01:44:12;;;;;;;10.60;7.80;;;2.80;99.90;;;;;;5031791;28;20457;-86
2021/01/08 01:46:38;;;;;;;9.40;7.77;;;2.60;99.90;;;;;;5032373;28;20443;-86
2021/01/08 01:49:05;;;;;;;10.80;9.03;;;2.40;99.90;;;;;;5032808;28;20498;-86
2021/01/08 01:51:32;;;;;;;17.43;9.37;;;2.30;99.90;;;;;;5034312;28;20447;-86
2021/01/08 01:53:58;;;;;;;11.90;8.00;;;2.20;99.90;;;;;;5032328;28;20532;-86
2021/01/08 01:56:25;;;;;;;11.23;8.70;;;2.10;99.90;;;;;;5032299;28;20449;-86
2021/01/08 01:58:51;;;;;;;12.20;8.85;;;2.00;99.90;;;;;;5032635;28;20201;-87
2021/01/08 02:01:18;;;;;;;14.30;9.37;;;2.00;99.90;;;;;;5032493;28;20314;-86
2021/01/08 02:03:49;;;;;;;10.23;7.47;;;1.90;99.90;;;;;;5032268;28;20472;-86
2021/01/08 02:06:19;;;;;;;10.17;7.70;;;1.80;99.90;;;;;;5030453;28;20436;-85
2021/01/08 02:08:53;;;;;;;10.77;8.52;;;1.70;99.90;;;;;;5032218;28;20477;-86
2021/01/08 02:11:26;;;;;;;11.47;8.40;;;1.80;99.90;;;;;;5032379;28;20206;-85
2021/01/08 02:13:57;;;;;;;11.43;7.93;;;1.80;99.90;;;;;;5032092;28;20589;-86
2021/01/08 02:16:24;;;;;;;11.00;8.15;;;1.80;99.90;;;;;;5031872;28;20255;-85
2021/01/08 02:18:53;;;;;;;12.63;8.63;;;1.90;99.90;;;;;;5031991;28;20263;-87
2021/01/08 02:21:24;;;;;;;10.82;8.07;;;2.00;99.90;;;;;;5031784;28;20471;-85
2021/01/08 02:23:59;;;;;;;9.33;7.33;;;2.10;99.90;;;;;;5031846;28;20228;-86
2021/01/08 02:26:27;;;;;;;11.77;7.95;;;2.20;99.90;;;;;;5029945;28;20441;-85
2021/01/08 02:28:54;;;;;;;10.13;8.43;;;2.20;99.90;;;;;;5031833;28;20248;-84
2021/01/08 02:31:20;;;;;;;11.17;7.13;;;2.30;99.90;;;;;;5032003;28;20618;-86
2021/01/08 02:33:47;;;;;;;14.13;7.30;;;2.30;99.90;;;;;;5031593;28;20475;-86
2021/01/08 02:36:13;;;;;;;8.67;6.80;;;2.40;99.90;;;;;;5031090;28;20462;-86
2021/01/08 02:38:41;;;;;;;16.77;7.50;;;2.40;99.90;;;;;;5031428;28;20487;-85
2021/01/08 02:41:09;;;;;;;11.63;8.83;;;2.50;99.90;;;;;;5031664;28;20455;-85
2021/01/08 02:43:38;;;;;;;11.03;8.20;;;2.50;99.90;;;;;;5031691;28;20477;-85
2021/01/08 02:46:04;;;;;;;8.23;7.03;;;2.60;99.90;;;;;;5031442;28;20444;-86
2021/01/08 02:48:31;;;;;;;10.83;7.13;;;2.60;99.90;;;;;;5031616;28;20475;-87
2021/01/08 02:50:57;;;;;;;9.03;7.77;;;2.60;99.90;;;;;;5031613;28;20997;-85
2021/01/08 02:53:27;;;;;;;10.57;7.77;;;2.60;99.90;;;;;;5031168;28;20844;-86
2021/01/08 02:55:58;;;;;;;12.83;7.10;;;2.70;99.90;;;;;;5031218;28;20932;-85
2021/01/08 02:58:25;;;;;;;8.67;6.70;;;2.70;99.90;;;;;;5031224;28;20535;-85
2021/01/08 03:00:54;;;;;;;7.97;6.03;;;2.70;99.90;;;;;;5031486;28;20462;-86
2021/01/08 03:03:21;;;;;;;9.07;7.30;;;2.80;99.90;;;;;;5031293;28;20611;-86
2021/01/08 03:05:48;;;;;;;9.43;6.80;;;2.80;99.90;;;;;;5030769;28;20443;-86
2021/01/08 03:08:15;;;;;;;6.77;5.93;;;2.80;99.90;;;;;;5031078;28;21008;-86
2021/01/08 03:10:41;;;;;;;8.23;5.93;;;2.80;99.90;;;;;;5029458;28;20467;-86
2021/01/08 03:13:09;;;;;;;8.20;6.30;;;2.70;99.90;;;;;;5031162;28;21281;-86
2021/01/08 03:15:36;;;;;;;8.80;6.40;;;2.80;99.90;;;;;;5030848;28;20453;-85
2021/01/08 03:18:03;;;;;;;8.67;7.33;;;2.80;99.90;;;;;;5031126;28;20452;-85
2021/01/08 03:20:29;;;;;;;8.73;6.40;;;2.70;99.90;;;;;;5030802;28;20455;-84
2021/01/08 03:22:55;;;;;;;8.47;6.47;;;2.60;99.90;;;;;;5029250;28;20221;-85
2021/01/08 03:25:22;;;;;;;7.67;6.63;;;2.60;99.90;;;;;;5030829;28;20436;-86
2021/01/08 03:27:48;;;;;;;8.23;6.30;;;2.60;99.90;;;;;;5030965;28;20447;-86
2021/01/08 03:30:15;;;;;;;8.03;6.97;;;2.60;99.90;;;;;;5030952;28;20790;-85
2021/01/08 03:32:41;;;;;;;8.10;6.57;;;2.60;99.90;;;;;;5029010;28;20460;-86
2021/01/08 03:35:08;;;;;;;8.63;6.43;;;2.60;99.90;;;;;;5030847;28;20451;-86
2021/01/08 03:37:36;;;;;;;10.97;7.80;;;2.60;99.90;;;;;;5030955;28;20448;-85
2021/01/08 03:40:03;;;;;;;11.23;8.60;;;2.60;99.90;;;;;;5031019;28;20445;-85
2021/01/08 03:42:30;;;;;;;10.30;7.70;;;2.50;99.90;;;;;;5030592;28;20467;-86
2021/01/08 03:44:56;;;;;;;10.45;8.15;;;2.50;99.90;;;;;;5028184;28;20506;-86
2021/01/08 03:47:22;;;;;;;9.60;7.50;;;2.50;99.90;;;;;;5030956;28;20202;-86
2021/01/08 03:49:48;;;;;;;10.33;8.40;;;2.40;99.90;;;;;;5034843;28;20478;-86
2021/01/08 03:52:15;;;;;;;10.77;8.98;;;2.40;99.90;;;;;;5034873;28;20455;-85
2021/01/08 03:54:41;;;;;;;11.52;9.30;;;2.50;99.90;;;;;;5030691;28;20200;-85
2021/01/08 03:57:08;;;;;;;10.00;8.07;;;2.50;99.90;;;;;;5035263;28;20236;-84
2021/01/08 03:59:34;;;;;;;13.90;9.90;;;2.50;99.90;;;;;;5034929;28;20451;-85
2021/01/08 04:02:00;;;;;;;10.73;8.83;;;2.40;99.90;;;;;;5035022;28;20444;-86
2021/01/08 04:04:26;;;;;;;9.90;7.63;;;2.40;99.90;;;;;;5032490;28;20960;-85
2021/01/08 04:06:52;;;;;;;11.40;8.80;;;2.40;99.90;;;;;;5034812;28;20202;-85
2021/01/08 04:09:20;;;;;;;12.95;10.18;;;2.30;99.90;;;;;;5034540;28;20475;-86
2021/01/08 04:11:46;;;;;;;12.43;8.87;;;2.30;99.90;;;;;;5034421;28;20734;-85
2021/01/08 04:14:13;;;;;;;11.17;9.67;;;2.40;99.90;;;;;;5034032;28;20463;-85
2021/01/08 04:16:41;;;;;;;12.50;9.40;;;2.30;99.90;;;;;;5033962;28;20471;-85
2021/01/08 04:19:07;;;;;;;13.97;10.00;;;2.30;99.90;;;;;;5034536;28;20463;-85
2021/01/08 04:21:34;;;;;;;11.55;8.93;;;2.20;99.90;;;;;;5034651;28;20448;-84
2021/01/08 04:24:00;;;;;;;10.60;8.87;;;2.20;99.90;;;;;;5034344;28;20690;-86
2021/01/08 04:26:27;;;;;;;14.60;9.43;;;2.20;99.90;;;;;;5031990;28;20936;-85
2021/01/08 04:28:53;;;;;;;13.20;8.50;;;2.20;99.90;;;;;;5034208;28;20218;-86
2021/01/08 04:31:19;;;;;;;12.30;9.20;;;2.10;99.90;;;;;;5033816;28;20454;-86
2021/01/08 04:33:46;;;;;;;11.00;8.87;;;2.20;99.90;;;;;;5033979;28;20475;-86
2021/01/08 04:36:12;;;;;;;9.83;7.77;;;2.20;99.90;;;;;;5033771;28;20458;-86
2021/01/08 04:38:39;;;;;;;11.87;7.87;;;2.20;99.90;;;;;;5033813;28;20857;-85
2021/01/08 04:41:06;;;;;;;12.95;9.23;;;2.20;99.90;;;;;;5033842;28;20463;-85
2021/01/08 04:43:34;;;;;;;13.95;9.23;;;2.20;99.90;;;;;;5033812;28;20223;-85
2021/01/08 04:46:06;;;;;;;10.15;8.40;;;2.30;99.90;;;;;;5033635;28;20195;-85
2021/01/08 04:48:34;;;;;;;11.73;8.43;;;2.20;99.90;;;;;;5032199;28;20291;-85
2021/01/08 04:51:02;;;;;;;11.93;7.93;;;2.30;99.90;;;;;;5033299;28;20453;-86
2021/01/08 04:53:29;;;;;;;10.00;8.20;;;2.20;99.90;;;;;;5031973;28;20871;-86
2021/01/08 04:55:57;;;;;;;12.00;9.23;;;2.30;99.90;;;;;;5033105;28;20452;-86
2021/01/08 04:58:24;;;;;;;10.00;7.47;;;2.30;99.90;;;;;;5033497;28;20444;-86
2021/01/08 05:00:52;;;;;;;9.85;7.93;;;2.20;99.90;;;;;;5032149;28;20447;-86
2021/01/08 05:03:18;;;;;;;10.82;7.80;;;2.30;99.90;;;;;;5033563;28;20223;-86
2021/01/08 05:05:45;;;;;;;13.30;9.40;;;2.30;99.90;;;;;;5032807;28;20205;-85
2021/01/08 05:08:11;;;;;;;10.75;8.23;;;2.30;99.90;;;;;;5031389;28;20480;-86
2021/01/08 05:10:37;;;;;;;11.17;8.33;;;2.30;99.90;;;;;;5033186;28;20240;-86
2021/01/08 05:13:03;;;;;;;10.73;8.25;;;2.30;99.90;;;;;;5033292;28;20463;-86
2021/01/08 05:15:30;;;;;;;8.38;7.45;;;2.30;99.90;;;;;;5032884;28;20235;-87
2021/01/08 05:17:57;;;;;;;10.93;8.27;;;2.30;99.90;;;;;;5031450;28;20249;-85
2021/01/08 05:20:23;;;;;;;9.10;7.83;;;2.40;99.90;;;;;;5033209;28;20197;-86
2021/01/08 05:22:50;;;;;;;9.60;7.80;;;2.40;99.90;;;;;;5032558;28;20471;-86
2021/01/08 05:25:17;;;;;;;8.57;6.53;;;2.40;99.90;;;;;;5032898;28;20193;-85
2021/01/08 05:27:43;;;;;;;8.17;6.97;;;2.40;99.90;;;;;;5033087;28;20459;-85
2021/01/08 05:30:17;;;;;;;9.03;6.93;;;2.40;99.90;;;;;;5032995;28;20480;-85
2021/01/08 05:32:44;;;;;;;9.05;6.78;;;2.40;99.90;;;;;;5031473;28;20469;-85
2021/01/08 05:35:16;;;;;;;9.48;6.28;;;2.50;99.90;;;;;;5030747;28;20187;-85
2021/01/08 05:37:43;;;;;;;9.93;7.37;;;2.50;99.90;;;;;;5032595;28;20611;-87
2021/01/08 05:40:11;;;;;;;7.75;6.95;;;2.50;99.90;;;;;;5032730;28;20490;-86
2021/01/08 05:42:49;;;;;;;8.97;6.90;;;2.60;99.90;;;;;;5032741;28;20300;-85
2021/01/08 05:45:15;;;;;;;9.43;6.70;;;2.50;99.90;;;;;;5031414;28;20432;-86
2021/01/08 05:47:43;;;;;;;7.40;6.60;;;2.50;99.90;;;;;;5030846;28;20760;-86
2021/01/08 05:50:11;;;;;;;10.40;7.47;;;2.50;99.90;;;;;;5032898;28;20227;-85
2021/01/08 05:52:42;;;;;;;7.47;6.07;;;2.50;99.90;;;;;;5032725;28;20474;-86
2021/01/08 05:55:11;;;;;;;12.53;7.10;;;2.50;99.90;;;;;;5031969;28;20445;-84
2021/01/08 05:57:37;;;;;;;7.93;5.93;;;2.50;99.90;;;;;;5032417;28;20505;-85
2021/01/08 06:00:05;;;;;;;8.43;5.93;;;2.50;99.90;;;;;;5033592;28;20444;-85
2021/01/08 06:02:32;;;;;;;8.37;6.30;;;2.60;99.90;;;;;;5032939;28;20711;-85
2021/01/08 06:04:59;;;;;;;8.40;6.30;;;2.60;99.90;;;;;;5032762;28;20660;-86
2021/01/08 06:07:28;;;;;;;11.37;7.13;;;2.60;99.90;;;;;;5032855;28;20452;-85
2021/01/08 06:10:02;;;;;;;9.00;6.83;;;2.60;99.90;;;;;;5032288;28;20963;-86
2021/01/08 06:12:35;;;;;;;9.30;7.65;;;2.60;99.90;;;;;;5032456;28;20513;-85
2021/01/08 06:15:02;;;;;;;9.13;7.13;;;2.60;99.90;;;;;;5032177;28;20212;-85
2021/01/08 06:17:28;;;;;;;11.13;7.63;;;2.60;99.90;;;;;;5032205;28;20659;-85
2021/01/08 06:20:01;;;;;;;8.67;6.70;;;2.50;99.90;;;;;;5032866;28;20922;-85
2021/01/08 06:22:35;;;;;;;9.10;7.80;;;2.60;99.90;;;;;;5032209;28;20563;-85
2021/01/08 06:25:02;;;;;;;8.97;7.60;;;2.60;99.90;;;;;;5031912;28;20450;-85
2021/01/08 06:27:32;;;;;;;11.00;7.70;;;2.60;99.90;;;;;;5031360;28;20452;-85
2021/01/08 06:30:00;;;;;;;8.77;7.00;;;2.60;99.90;;;;;;5031859;28;20832;-86
2021/01/08 06:32:30;;;;;;;9.67;6.60;;;2.60;99.90;;;;;;5031647;28;20314;-86
2021/01/08 06:35:02;;;;;;;12.93;8.73;;;2.60;99.90;;;;;;5031596;28;20438;-85
2021/01/08 06:37:37;;;;;;;8.03;6.70;;;2.60;99.90;;;;;;5031758;28;20435;-84
2021/01/08 06:40:06;;;;;;;9.37;7.13;;;2.60;99.90;;;;;;5031346;28;20440;-85
2021/01/08 06:42:39;;;;;;;8.90;7.63;;;2.60;99.90;;;;;;5031029;28;20462;-85
2021/01/08 06:45:11;;;;;;;9.15;6.53;;;2.60;99.90;;;;;;5031348;28;20424;-85
2021/01/08 06:47:43;;;;;;;9.40;6.70;;;2.50;99.90;;;;;;5029694;28;20196;-85
2021/01/08 06:50:16;;;;;;;10.33;7.70;;;2.60;99.90;;;;;;5029969;28;20502;-85
2021/01/08 06:52:45;;;;;;;8.67;6.60;;;2.60;99.90;;;;;;5030029;28;20480;-85
2021/01/08 06:55:16;;;;;;;7.17;6.00;;;2.60;99.90;;;;;;5030979;28;20543;-84
2021/01/08 06:57:52;;;;;;;8.63;7.00;;;2.70;99.90;;;;;;5030990;28;20945;-85
2021/01/08 07:00:21;;;;;;;8.63;6.55;;;2.70;99.90;;;;;;5031403;28;20443;-85
2021/01/08 07:02:52;;;;;;;7.67;6.63;;;2.70;99.90;;;;;;5031409;28;20217;-85
2021/01/08 07:05:19;;;;;;;7.10;6.13;;;2.70;99.90;;;;;;5031158;28;20878;-85
2021/01/08 07:07:48;;;;;;;9.13;7.30;;;2.70;99.90;;;;;;5031217;28;20454;-85
2021/01/08 07:10:17;;;;;;;9.17;7.03;;;2.70;99.90;;;;;;5031082;28;20219;-86
2021/01/08 07:12:43;;;;;;;10.90;7.20;;;2.70;99.90;;;;;;5030747;28;20510;-86
2021/01/08 07:15:12;;;;;;;10.97;7.20;;;2.70;99.90;;;;;;5031748;28;20499;-85
2021/01/08 07:17:40;;;;;;;7.43;5.90;;;2.70;99.90;;;;;;5031242;28;20447;-84
2021/01/08 07:20:08;;;;;;;7.50;5.87;;;2.70;99.90;;;;;;5029323;28;20499;-85
2021/01/08 07:22:38;;;;;;;7.80;6.80;;;2.70;99.90;;;;;;5030191;28;20468;-86
2021/01/08 07:25:06;;;;;;;8.43;6.17;;;2.80;99.90;;;;;;5030705;28;20840;-85
2021/01/08 07:27:33;;;;;;;7.03;5.33;;;2.80;99.90;;;;;;5030438;28;20445;-86
2021/01/08 07:30:01;;;;;;;7.40;5.63;;;2.80;99.90;;;;;;5030736;28;20474;-85
2021/01/08 07:32:34;;;;;;;6.90;6.20;;;2.80;99.90;;;;;;5030697;28;20464;-85
2021/01/08 07:35:14;;;;;;;6.27;5.47;;;2.80;99.90;;;;;;5030691;28;20452;-85
2021/01/08 07:38:01;;;;;;;7.27;5.83;;;2.90;99.90;;;;;;5029665;28;20464;-87
2021/01/08 07:40:28;;;;;;;7.57;5.97;;;2.90;99.90;;;;;;5028268;28;20448;-84
2021/01/08 07:42:57;;;;;;;7.00;6.18;;;2.80;99.90;;;;;;5025413;28;20801;-84
2021/01/08 07:45:43;;;;;;;7.63;5.93;;;2.90;99.90;;;;;;5030066;28;20197;-84
2021/01/08 07:48:17;;;;;;;9.20;8.30;;;2.80;99.90;;;;;;5028965;28;20497;-84
2021/01/08 07:50:51;;;;;;;7.50;5.27;;;2.90;99.90;;;;;;5031635;28;20508;-84
2021/01/08 07:53:48;;;;;;;8.77;6.50;;;2.90;99.90;;;;;;5031020;28;20543;-84
2021/01/08 07:56:16;;;;;;;11.13;6.37;;;3.00;99.90;;;;;;5030926;28;20728;-84
2021/01/08 07:58:43;;;;;;;11.70;7.35;;;3.00;99.90;;;;;;5031168;28;20444;-85
2021/01/08 08:01:11;;;;;;;7.20;6.18;;;3.00;99.90;;;;;;5030647;28;20671;-85
2021/01/08 08:03:38;;;;;;;6.90;6.05;;;3.00;99.90;;;;;;5030903;28;20249;-83
2021/01/08 08:06:05;;;;;;;8.02;6.65;;;3.10;99.90;;;;;;5031091;28;20209;-86
2021/01/08 08:08:32;;;;;;;8.75;7.90;;;3.10;99.90;;;;;;5030997;28;20225;-84
2021/01/08 08:11:12;;;;;;;10.93;6.93;;;3.10;99.90;;;;;;5031358;28;20685;-84
2021/01/08 08:13:39;;;;;;;8.87;6.37;;;3.10;99.90;;;;;;5030869;28;20480;-83
2021/01/08 08:16:06;;;;;;;7.10;6.30;;;3.10;99.90;;;;;;5030526;28;20453;-85
2021/01/08 08:18:33;;;;;;;7.90;6.73;;;3.10;99.90;;;;;;5030986;28;20447;-83
2021/01/08 08:21:09;;;;;;;7.93;5.90;;;3.10;99.90;;;;;;5031129;28;20443;-84
2021/01/08 08:23:35;;;;;;;7.00;5.53;;;3.20;99.90;;;;;;5030899;28;20469;-84
2021/01/08 08:26:01;;;;;;;7.10;5.90;;;3.10;99.90;;;;;;5030877;28;20494;-85
2021/01/08 08:28:27;;;;;;;6.63;5.70;;;3.10;99.90;;;;;;5031004;28;20485;-84
2021/01/08 08:30:54;;;;;;;6.90;6.20;;;3.10;99.90;;;;;;5031212;28;20449;-85
2021/01/08 08:33:22;;;;;;;6.50;5.80;;;3.10;99.90;;;;;;5030644;28;20569;-84
2021/01/08 08:35:48;;;;;;;6.47;5.50;;;3.20;99.90;;;;;;5034749;28;21007;-84
2021/01/08 08:38:14;;;;;;;7.80;6.03;;;3.20;99.90;;;;;;5033901;28;20978;-84
2021/01/08 08:40:40;;;;;;;7.70;6.23;;;3.30;99.90;;;;;;5034182;28;21036;-84
2021/01/08 08:43:07;;;;;;;7.17;6.00;;;3.40;99.90;;;;;;5034084;28;20482;-84
2021/01/08 08:45:35;;;;;;;7.73;5.90;;;3.40;99.90;;;;;;5033964;28;20460;-83
2021/01/08 08:48:05;;;;;;;8.97;5.13;;;3.40;99.90;;;;;;5034466;28;20453;-84
2021/01/08 08:50:33;;;;;;;7.90;5.67;;;3.40;99.90;;;;;;5033894;28;20481;-85
2021/01/08 08:53:09;;;;;;;9.20;6.60;;;3.40;99.90;;;;;;5034346;28;20495;-84
2021/01/08 08:55:35;;;;;;;6.83;6.10;;;3.40;99.90;;;;;;5033872;28;21154;-85
2021/01/08 08:58:07;;;;;;;6.30;5.40;;;3.30;99.90;;;;;;5034294;28;20456;-84
2021/01/08 09:00:34;;;;;;;7.50;5.70;;;3.30;99.90;;;;;;5033751;28;20458;-85
2021/01/08 09:03:00;;;;;;;5.40;4.53;;;3.30;99.90;;;;;;5033875;28;20981;-82
2021/01/08 09:05:31;;;;;;;6.43;5.10;;;3.30;99.90;;;;;;5029045;28;20429;-83
2021/01/08 09:08:06;;;;;;;6.73;5.10;;;3.30;99.90;;;;;;5022142;28;20445;-84
2021/01/08 09:10:35;;;;;;;8.33;5.90;;;3.30;99.90;;;;;;5024480;28;20482;-85
2021/01/08 09:13:10;;;;;;;6.90;5.20;;;3.30;99.90;;;;;;5023590;28;20462;-85
2021/01/08 09:15:45;;;;;;;6.57;5.67;;;3.40;99.90;;;;;;5023276;28;20454;-84
2021/01/08 09:18:34;;;;;;;6.83;4.90;;;3.50;99.90;;;;;;5022458;28;20443;-83
2021/01/08 09:21:06;;;;;;;7.60;5.40;;;3.50;99.90;;;;;;5024196;28;20438;-84
2021/01/08 09:23:35;;;;;;;5.33;4.80;;;3.60;99.90;;;;;;5023081;28;20441;-85
2021/01/08 09:26:04;;;;;;;8.47;5.03;;;3.70;99.90;;;;;;5024286;28;20441;-83
2021/01/08 09:28:39;;;;;;;4.30;3.90;;;3.70;99.90;;;;;;5024225;28;20491;-84
2021/01/08 09:31:06;;;;;;;4.83;3.70;;;3.70;99.90;;;;;;5026482;28;20457;-84
2021/01/08 09:33:32;;;;;;;6.20;5.03;;;3.70;99.90;;;;;;5021374;28;20941;-84
2021/01/08 09:35:58;;;;;;;5.63;4.97;;;3.60;99.90;;;;;;5022672;28;20447;-83
2021/01/08 09:38:28;;;;;;;4.43;4.03;;;3.60;99.90;;;;;;5021829;28;20467;-84
2021/01/08 09:41:00;;;;;;;6.03;4.23;;;3.60;99.90;;;;;;5024224;28;20503;-84
2021/01/08 09:43:26;;;;;;;5.03;4.47;;;3.60;99.90;;;;;;5023843;28;20465;-84
2021/01/08 09:46:06;;;;;;;4.90;3.83;;;3.60;99.90;;;;;;5021821;28;20480;-84
2021/01/08 09:48:34;;;;;;;4.63;3.47;;;3.60;99.90;;;;;;5026238;28;20853;-86
2021/01/08 09:51:01;;;;;;;3.33;3.00;;;3.60;99.90;;;;;;5024918;28;20453;-86
2021/01/08 09:53:29;;;;;;;4.40;3.83;;;3.60;99.90;;;;;;5023578;28;20468;-86
2021/01/08 09:56:11;;;;;;;4.37;3.80;;;3.70;99.90;;;;;;5023545;28;20491;-86
2021/01/08 09:58:37;;;;;;;5.17;3.60;;;3.80;99.90;;;;;;5025290;28;20432;-88
2021/01/08 10:01:03;;;;;;;4.53;4.10;;;3.80;99.90;;;;;;5028574;28;20515;-89
2021/01/08 10:03:29;;;;;;;4.03;3.57;;;3.90;99.90;;;;;;5027114;28;20474;-88
2021/01/08 10:06:02;;;;;;;3.73;3.13;;;3.90;99.90;;;;;;5022230;28;20445;-88
2021/01/08 10:08:29;;;;;;;5.60;3.83;;;4.00;99.90;;;;;;5025173;28;20447;-90
2021/01/08 10:10:55;;;;;;;5.97;3.70;;;4.00;99.90;;;;;;5028033;28;20449;-90
2021/01/08 10:13:23;;;;;;;3.70;3.17;;;4.10;99.90;;;;;;5027546;28;20469;-90
2021/01/08 10:15:51;;;;;;;4.10;3.70;;;4.20;99.90;;;;;;5028001;28;20453;-89
2021/01/08 10:18:22;;;;;;;3.57;2.90;;;4.20;99.90;;;;;;5026320;28;20441;-87
2021/01/08 10:20:50;;;;;;;3.77;3.37;;;4.30;99.90;;;;;;5027813;28;20453;-87
2021/01/08 10:23:17;;;;;;;6.63;3.93;;;4.30;99.90;;;;;;5021300;28;20479;-81
2021/01/08 10:25:45;;;;;;;4.60;3.40;;;4.20;99.90;;;;;;5022262;28;20512;-80
2021/01/08 10:28:20;;;;;;;4.57;3.67;;;4.20;99.90;;;;;;5021122;28;20814;-81
2021/01/08 10:30:48;;;;;;;4.17;3.70;;;4.10;99.90;;;;;;5025880;28;20535;-84
2021/01/08 10:33:15;;;;;;;5.63;4.60;;;4.10;99.90;;;;;;5023027;28;20874;-89
2021/01/08 10:35:49;;;;;;;4.60;3.67;;;4.10;99.90;;;;;;5022675;28;20440;-90
2021/01/08 10:38:16;;;;;;;5.70;4.27;;;4.10;99.90;;;;;;5023342;28;20428;-87
2021/01/08 10:40:42;;;;;;;4.50;3.77;;;4.10;99.90;;;;;;5033792;28;20451;-86
2021/01/08 10:43:10;;;;;;;4.20;3.80;;;4.20;99.90;;;;;;5034836;28;20479;-91
2021/01/08 10:45:37;;;;;;;4.27;3.60;;;4.20;99.90;;;;;;5029413;28;20442;-88
2021/01/08 10:48:04;;;;;;;5.03;4.03;;;4.20;99.90;;;;;;5021257;28;20450;-89
2021/01/08 10:50:31;;;;;;;4.13;3.73;;;4.30;99.90;;;;;;5014387;28;20486;-90
2021/01/08 10:52:57;;;;;;;5.53;4.90;;;4.40;99.90;;;;;;5029379;28;20450;-88
2021/01/08 10:55:23;;;;;;;4.77;4.27;;;4.40;99.90;;;;;;5017469;28;20453;-88
2021/01/08 10:57:49;;;;;;;4.77;4.27;;;4.40;99.90;;;;;;5012181;28;20444;-88
2021/01/08 11:00:19;;;;;;;5.80;4.53;;;4.50;99.90;;;;;;5014514;28;20443;-91
2021/01/08 11:02:45;;;;;;;5.23;4.23;;;4.70;99.90;;;;;;5032508;28;21080;-88
2021/01/08 11:05:12;;;;;;;5.90;4.33;;;4.90;99.90;;;;;;5031412;28;20445;-88
2021/01/08 11:07:38;;;;;;;5.37;4.87;;;5.00;99.90;;;;;;5031583;28;20453;-88
2021/01/08 11:10:06;;;;;;;5.53;5.03;;;5.30;99.90;;;;;;5034852;28;20480;-87
2021/01/08 11:12:33;;;;;;;6.40;4.97;;;5.40;99.90;;;;;;5031292;28;20477;-92
2021/01/08 11:15:00;;;;;;;4.67;4.23;;;5.30;99.90;;;;;;5031166;28;20457;-89
2021/01/08 11:17:27;;;;;;;5.80;4.63;;;5.30;99.90;;;;;;5031346;28;20461;-89
2021/01/08 11:19:54;;;;;;;5.60;5.00;;;5.10;99.90;;;;;;5028850;28;20962;-87
2021/01/08 11:22:20;;;;;;;5.70;5.10;;;5.10;99.90;;;;;;5031165;28;20449;-88
2021/01/08 11:24:46;;;;;;;5.90;5.20;;;5.10;99.90;;;;;;5030186;28;20453;-90
2021/01/08 11:27:12;;;;;;;6.03;5.40;;;5.20;99.90;;;;;;5031249;28;20457;-88
2021/01/08 11:29:40;;;;;;;6.23;5.60;;;5.30;99.90;;;;;;5030598;28;20484;-88
2021/01/08 11:32:07;;;;;;;6.80;5.33;;;5.50;99.90;;;;;;5030839;28;20445;-94
2021/01/08 11:34:35;;;;;;;11.90;7.80;;;5.60;99.90;;;;;;5030288;28;20482;-88
2021/01/08 11:37:01;;;;;;;9.90;6.53;;;5.50;99.90;;;;;;5027167;28;20444;-88
2021/01/08 11:39:27;;;;;;;6.60;5.10;;;5.40;99.90;;;;;;5025364;28;20509;-87
2021/01/08 11:41:55;;;;;;;5.67;4.80;;;5.40;99.90;;;;;;5027331;28;20441;-88
2021/01/08 11:44:22;;;;;;;6.93;5.87;;;5.30;99.90;;;;;;5025153;28;20465;-89
2021/01/08 11:46:49;;;;;;;5.60;4.93;;;5.40;99.90;;;;;;5025858;28;20454;-88
2021/01/08 11:49:15;;;;;;;6.93;5.00;;;5.50;99.90;;;;;;5028156;28;20610;-88
2021/01/08 11:51:42;;;;;;;4.90;4.40;;;5.50;99.90;;;;;;5028355;28;21053;-88
2021/01/08 11:54:09;;;;;;;5.47;4.60;;;5.50;99.90;;;;;;5026539;28;20465;-89
2021/01/08 11:56:35;;;;;;;5.33;4.60;;;5.40;99.90;;;;;;5025599;28;20449;-89
2021/01/08 11:59:02;;;;;;;6.67;5.13;;;5.30;99.90;;;;;;5023583;28;20452;-89
2021/01/08 12:01:29;;;;;;;5.97;5.37;;;5.30;99.90;;;;;;5025396;28;20453;-88
2021/01/08 12:03:56;;;;;;;5.70;4.73;;;5.20;99.90;;;;;;5024629;28;20540;-88
2021/01/08 12:06:27;;;;;;;4.90;4.47;;;5.10;99.90;;;;;;5028249;28;21639;-88
2021/01/08 12:08:55;;;;;;;5.53;4.63;;;5.00;99.90;;;;;;5027283;28;20469;-89
2021/01/08 12:11:21;;;;;;;4.50;3.47;;;5.00;99.90;;;;;;5032420;28;20441;-88
2021/01/08 12:13:47;;;;;;;6.77;4.77;;;4.80;99.90;;;;;;5031025;28;20472;-88
2021/01/08 12:16:13;;;;;;;4.67;4.27;;;4.70;99.90;;;;;;5033435;28;20449;-88
2021/01/08 12:18:40;;;;;;;10.73;5.20;;;4.70;99.90;;;;;;5033135;28;20553;-88
2021/01/08 12:21:07;;;;;;;4.90;4.17;;;4.60;99.90;;;;;;5031777;28;20442;-88
2021/01/08 12:23:34;;;;;;;5.40;4.53;;;4.50;99.90;;;;;;5034493;28;20865;-88
2021/01/08 12:26:01;;;;;;;6.10;4.83;;;4.50;99.90;;;;;;5035919;28;20455;-87
2021/01/08 12:28:27;;;;;;;6.73;5.07;;;4.50;99.90;;;;;;5033025;28;20555;-88
2021/01/08 12:30:53;;;;;;;6.57;5.43;;;4.50;99.90;;;;;;5030404;28;20480;-87
2021/01/08 12:33:19;;;;;;;5.37;4.57;;;4.50;99.90;;;;;;5034507;28;20469;-88
2021/01/08 12:35:46;;;;;;;6.23;5.07;;;4.40;99.90;;;;;;5033314;28;20450;-88
2021/01/08 12:38:12;;;;;;;7.90;6.20;;;4.30;99.90;;;;;;5036398;28;20538;-88
2021/01/08 12:40:38;;;;;;;7.80;5.77;;;4.30;99.90;;;;;;5032867;28;20518;-90
2021/01/08 12:43:05;;;;;;;5.90;4.70;;;4.30;99.90;;;;;;5031235;28;20520;-89
2021/01/08 12:45:31;;;;;;;6.20;5.10;;;4.30;99.90;;;;;;5034706;28;20454;-89
2021/01/08 12:47:57;;;;;;;5.57;5.00;;;4.20;99.90;;;;;;5030817;28;20474;-89
2021/01/08 12:50:24;;;;;;;7.37;5.10;;;4.20;99.90;;;;;;5032612;28;20483;-88
2021/01/08 12:52:50;;;;;;;6.17;4.27;;;4.20;99.90;;;;;;5031333;28;20579;-88
2021/01/08 12:55:16;;;;;;;7.23;5.50;;;4.30;99.90;;;;;;5031900;28;20496;-89
2021/01/08 12:57:44;;;;;;;6.90;6.03;;;4.20;99.90;;;;;;5030966;28;20554;-87